Time;durP1;ratioP1;P1;durP2;ratioP2;P2;SDS_P1;SDS_P2;PMS_P1;PMS_P2;Temp;Humidity;BMP_temperature;BMP_pressure;BME280_temperature;BME280_humidity;BME280_pressure;Samples;Min_cycle;Max_cycle;Signal;HPM_P1;HPM_P2
2022/02/05 00:01:49;0.00;0.00;0.62;0.00;0.00;0.62;1.40;1.00;;;21.90;27.90;;;;;;2249695;61;20369;-61
2022/02/05 00:04:35;0.00;0.00;0.62;0.00;0.00;0.62;1.90;0.97;;;21.90;27.90;;;;;;2245387;61;20425;-61
2022/02/05 00:43:30;0.00;0.00;0.62;0.00;0.00;0.62;1.47;0.97;;;21.90;27.90;;;;;;2249688;61;20769;-60
2022/02/05 00:46:15;0.00;0.00;0.62;0.00;0.00;0.62;1.60;1.00;;;21.90;27.90;;;;;;2247404;61;20392;-61
2022/02/05 00:49:01;0.00;0.00;0.62;0.00;0.00;0.62;2.00;1.10;;;21.90;27.90;;;;;;2246138;61;20672;-61
2022/02/05 00:51:51;0.00;0.00;0.62;0.00;0.00;0.62;2.33;1.03;;;21.90;27.90;;;;;;2245538;61;20360;-61
2022/02/05 00:54:37;0.00;0.00;0.62;0.00;0.00;0.62;1.93;1.20;;;21.90;27.90;;;;;;2244465;61;20358;-61
2022/02/05 01:00:18;0.00;0.00;0.62;0.00;0.00;0.62;2.07;1.30;;;21.90;28.00;;;;;;2244528;61;20362;-60
2022/02/05 01:03:04;0.00;0.00;0.62;0.00;0.00;0.62;1.80;0.87;;;21.90;27.90;;;;;;2244838;61;20424;-61
2022/02/05 01:05:50;0.00;0.00;0.62;0.00;0.00;0.62;2.50;1.33;;;21.90;27.90;;;;;;2245619;61;20389;-60
2022/02/05 01:08:36;0.00;0.00;0.62;0.00;0.00;0.62;1.70;1.00;;;21.90;27.90;;;;;;2244836;61;20365;-60
2022/02/05 01:11:21;0.00;0.00;0.62;0.00;0.00;0.62;1.57;1.10;;;21.90;28.00;;;;;;2245239;61;20808;-60
2022/02/05 01:14:08;0.00;0.00;0.62;0.00;0.00;0.62;2.20;1.40;;;21.90;27.90;;;;;;2245015;61;20414;-58
2022/02/05 01:16:58;0.00;0.00;0.62;0.00;0.00;0.62;3.73;1.00;;;21.90;27.90;;;;;;2244689;61;20809;-57
2022/02/05 01:22:49;0.00;0.00;0.62;0.00;0.00;0.62;2.10;1.53;;;21.90;27.80;;;;;;2245339;61;20417;-61
2022/02/05 01:25:36;0.00;0.00;0.62;0.00;0.00;0.62;3.80;2.00;;;21.90;27.70;;;;;;2244532;61;20370;-61
2022/02/05 01:28:27;0.00;0.00;0.62;0.00;0.00;0.62;3.97;2.17;;;21.90;27.20;;;;;;2245781;61;20409;-60
2022/02/05 01:31:12;0.00;0.00;0.62;0.00;0.00;0.62;3.73;2.40;;;21.80;26.80;;;;;;2244855;61;20401;-61
2022/02/05 01:49:13;0.00;0.00;0.62;0.00;0.00;0.62;3.20;2.20;;;21.40;25.60;;;;;;2247650;61;20372;-60
2022/02/05 01:52:14;0.00;0.00;0.62;0.00;0.00;0.62;4.40;2.50;;;21.30;25.40;;;;;;2245352;61;20397;-61
2022/02/05 01:55:17;0.00;0.00;0.62;0.00;0.00;0.62;3.90;2.80;;;21.20;25.30;;;;;;2245099;61;20774;-60
2022/02/05 01:58:17;0.00;0.00;0.62;0.00;0.00;0.62;4.33;3.57;;;21.10;25.10;;;;;;2245965;61;20373;-60
2022/02/05 02:07:25;0.00;0.00;0.62;0.00;0.00;0.62;4.40;2.67;;;20.90;25.00;;;;;;2245809;61;20412;-60
2022/02/05 02:10:32;0.00;0.00;0.62;0.00;0.00;0.62;6.17;2.43;;;20.80;25.00;;;;;;2243543;61;20369;-60
2022/02/05 02:19:48;0.00;0.00;0.62;0.00;0.00;0.62;5.17;3.07;;;20.60;24.80;;;;;;2245342;61;20442;-61
2022/02/05 02:22:27;0.00;0.00;0.62;0.00;0.00;0.62;3.90;2.70;;;20.50;24.70;;;;;;2245858;61;20424;-58
2022/02/05 02:25:31;0.00;0.00;0.62;0.00;0.00;0.62;4.90;3.13;;;20.40;24.70;;;;;;2245041;61;20381;-60
2022/02/05 02:28:44;0.00;0.00;0.62;0.00;0.00;0.62;5.80;3.17;;;20.30;24.60;;;;;;2246146;61;20677;-61
2022/02/05 02:31:28;0.00;0.00;0.62;0.00;0.00;0.62;5.53;2.93;;;20.20;24.60;;;;;;2245148;61;20381;-59
2022/02/05 02:34:19;0.00;0.00;0.62;0.00;0.00;0.62;8.83;3.30;;;20.10;24.50;;;;;;2245295;61;20737;-61
2022/02/05 02:37:09;0.00;0.00;0.62;0.00;0.00;0.62;5.50;2.83;;;20.10;24.50;;;;;;2246492;61;20817;-61
2022/02/05 02:42:52;0.00;0.00;0.62;0.00;0.00;0.62;4.73;2.63;;;19.90;24.60;;;;;;2250027;61;20432;-60
2022/02/05 02:45:36;0.00;0.00;0.62;0.00;0.00;0.62;4.80;2.67;;;19.90;24.60;;;;;;2248940;61;20453;-61
2022/02/05 02:48:21;0.00;0.00;0.62;0.00;0.00;0.62;6.50;2.80;;;19.80;24.60;;;;;;2247788;61;20376;-60
2022/02/05 02:57:23;0.00;0.00;0.62;0.00;0.00;0.62;4.93;2.70;;;19.60;24.70;;;;;;2246207;61;20670;-60
2022/02/05 03:00:11;0.00;0.00;0.62;0.00;0.00;0.62;5.57;2.40;;;19.60;24.80;;;;;;2244998;61;20730;-59
2022/02/05 03:02:56;0.00;0.00;0.62;0.00;0.00;0.62;8.13;3.53;;;19.60;24.80;;;;;;2245265;61;20605;-60
2022/02/05 03:05:40;0.00;0.00;0.62;0.00;0.00;0.62;4.07;2.40;;;19.50;24.80;;;;;;2245508;61;20656;-60
2022/02/05 03:08:25;0.00;0.00;0.62;0.00;0.00;0.62;4.90;2.00;;;19.50;24.80;;;;;;2244986;61;20361;-60
2022/02/05 03:11:10;0.00;0.00;0.62;0.00;0.00;0.62;4.70;2.20;;;19.40;24.80;;;;;;2245537;61;20365;-60
2022/02/05 03:13:56;0.00;0.00;0.62;0.00;0.00;0.62;4.33;2.23;;;19.40;24.90;;;;;;2245734;61;20358;-59
2022/02/05 03:16:47;0.00;0.00;0.62;0.00;0.00;0.62;3.40;2.47;;;19.30;24.80;;;;;;2245054;61;20396;-60
2022/02/05 03:19:31;0.00;0.00;0.62;0.00;0.00;0.62;5.03;3.00;;;19.30;24.80;;;;;;2245990;61;20409;-60
2022/02/05 03:22:17;0.00;0.00;0.62;0.00;0.00;0.62;3.40;2.03;;;19.30;24.80;;;;;;2244811;61;20455;-60
2022/02/05 03:25:02;0.00;0.00;0.62;0.00;0.00;0.62;9.57;2.43;;;19.20;24.80;;;;;;2245233;61;20369;-60
2022/02/05 03:27:47;0.00;0.00;0.62;0.00;0.00;0.62;3.70;2.23;;;19.20;24.80;;;;;;2245958;61;20364;-60
2022/02/05 03:30:33;0.00;0.00;0.62;0.00;0.00;0.62;5.50;2.37;;;19.20;24.90;;;;;;2244661;61;20430;-60
2022/02/05 03:33:18;0.00;0.00;0.62;0.00;0.00;0.62;3.83;2.00;;;19.10;24.90;;;;;;2245332;61;20378;-60
2022/02/05 03:36:03;0.00;0.00;0.62;0.00;0.00;0.62;3.43;1.77;;;19.10;24.90;;;;;;2245912;61;20752;-59
2022/02/05 03:38:47;0.00;0.00;0.62;0.00;0.00;0.62;3.87;2.50;;;19.10;24.90;;;;;;2244903;61;21065;-60
2022/02/05 03:41:32;0.00;0.00;0.62;0.00;0.00;0.62;3.83;1.90;;;19.00;24.90;;;;;;2246027;61;20442;-59
2022/02/05 03:44:17;0.00;0.00;0.62;0.00;0.00;0.62;4.10;2.40;;;19.00;24.90;;;;;;2245316;61;20425;-60
2022/02/05 03:47:03;0.00;0.00;0.62;0.00;0.00;0.62;6.47;2.40;;;19.00;25.00;;;;;;2245384;61;20386;-60
2022/02/05 03:49:50;0.00;0.00;0.62;0.00;0.00;0.62;2.97;2.07;;;19.00;25.00;;;;;;2249716;61;20509;-60
2022/02/05 03:52:36;0.00;0.00;0.62;0.00;0.00;0.62;3.67;2.80;;;18.90;25.00;;;;;;2248617;61;20424;-58
2022/02/05 03:55:21;0.00;0.00;0.62;0.00;0.00;0.62;4.67;2.60;;;18.90;25.00;;;;;;2249005;61;20613;-61
2022/02/05 03:58:06;0.00;0.00;0.62;0.00;0.00;0.62;5.33;2.37;;;18.90;25.00;;;;;;2249915;61;20396;-61
2022/02/05 04:00:50;0.00;0.00;0.62;0.00;0.00;0.62;3.80;2.27;;;18.90;24.90;;;;;;2248832;61;20592;-60
2022/02/05 04:03:36;0.00;0.00;0.62;0.00;0.00;0.62;4.80;2.37;;;18.80;24.80;;;;;;2249775;61;20604;-60
2022/02/05 04:06:21;0.00;0.00;0.62;0.00;0.00;0.62;4.70;2.40;;;18.80;24.80;;;;;;2248970;61;20432;-59
2022/02/05 04:09:11;0.00;0.00;0.62;0.00;0.00;0.62;5.50;2.53;;;18.80;24.80;;;;;;2249166;61;20448;-61
2022/02/05 04:15:54;0.00;0.00;0.62;0.00;0.00;0.62;3.47;1.90;;;18.80;24.80;;;;;;2249781;61;20367;-60
2022/02/05 04:18:04;0.00;0.00;0.62;0.00;0.00;0.62;5.73;2.30;;;18.70;24.80;;;;;;2249516;61;20736;-60
2022/02/05 04:20:51;0.00;0.00;0.62;0.00;0.00;0.62;5.33;3.00;;;18.70;24.90;;;;;;2249136;61;20412;-60
2022/02/05 04:23:36;0.00;0.00;0.62;0.00;0.00;0.62;2.83;1.77;;;18.60;24.80;;;;;;2248765;61;20652;-59
2022/02/05 04:26:21;0.00;0.00;0.62;0.00;0.00;0.62;3.47;2.10;;;18.60;24.80;;;;;;2249641;61;20432;-59
2022/02/05 04:29:10;0.00;0.00;0.62;0.00;0.00;0.62;5.07;2.30;;;18.60;24.80;;;;;;2248697;61;20405;-60
2022/02/05 04:31:54;0.00;0.00;0.62;0.00;0.00;0.62;11.20;3.10;;;18.50;24.80;;;;;;2248986;61;20595;-59
2022/02/05 04:34:39;0.00;0.00;0.62;0.00;0.00;0.62;6.20;2.60;;;18.50;24.70;;;;;;2249830;61;20353;-60
2022/02/05 04:37:27;0.00;0.00;0.62;0.00;0.00;0.62;5.07;2.17;;;18.50;24.80;;;;;;2247437;61;20393;-60
2022/02/05 04:40:31;0.00;0.00;0.62;0.00;0.00;0.62;3.30;1.77;;;18.50;24.80;;;;;;2245365;61;20729;-59
2022/02/05 04:46:43;0.00;0.00;0.62;0.00;0.00;0.62;5.00;3.10;;;18.40;24.80;;;;;;2244960;61;20418;-60
2022/02/05 04:49:38;0.00;0.00;0.62;0.00;0.00;0.62;4.67;2.33;;;18.40;24.80;;;;;;2248696;61;20368;-60
2022/02/05 05:10:33;0.00;0.00;0.62;0.00;0.00;0.62;5.53;2.10;;;18.20;25.00;;;;;;2248515;61;20360;-58
2022/02/05 05:13:32;0.00;0.00;0.62;0.00;0.00;0.62;5.90;2.17;;;18.20;25.00;;;;;;2248546;61;20397;-61
2022/02/05 05:19:30;0.00;0.00;0.62;0.00;0.00;0.62;2.20;1.63;;;18.10;25.00;;;;;;2249714;61;20399;-61
2022/02/05 05:22:15;0.00;0.00;0.62;0.00;0.00;0.62;4.80;2.23;;;18.10;25.00;;;;;;2248621;61;20419;-60
2022/02/05 05:25:01;0.00;0.00;0.62;0.00;0.00;0.62;8.50;2.50;;;18.10;25.00;;;;;;2249391;61;20364;-59
2022/02/05 05:27:46;0.00;0.00;0.62;0.00;0.00;0.62;4.40;2.80;;;18.10;25.00;;;;;;2249016;61;20368;-59
2022/02/05 05:30:30;0.00;0.00;0.62;0.00;0.00;0.62;5.17;2.07;;;18.10;25.00;;;;;;2248793;61;20408;-59
2022/02/05 05:33:15;0.00;0.00;0.62;0.00;0.00;0.62;3.90;2.30;;;18.00;25.00;;;;;;2249673;61;20360;-60
2022/02/05 05:36:00;0.00;0.00;0.62;0.00;0.00;0.62;6.20;2.27;;;18.00;25.10;;;;;;2248459;61;20380;-60
2022/02/05 05:38:44;0.00;0.00;0.62;0.00;0.00;0.62;3.40;1.37;;;18.00;25.20;;;;;;2245350;61;20377;-60
2022/02/05 05:41:33;0.00;0.00;0.62;0.00;0.00;0.62;2.33;1.63;;;18.00;25.20;;;;;;2245708;61;20362;-60
2022/02/05 05:44:50;0.00;0.00;0.62;0.00;0.00;0.62;2.70;1.60;;;18.00;25.20;;;;;;2244419;61;20624;-60
2022/02/05 05:47:37;0.00;0.00;0.62;0.00;0.00;0.62;4.00;2.07;;;18.00;25.20;;;;;;2246065;61;20669;-61
2022/02/05 05:53:19;0.00;0.00;0.62;0.00;0.00;0.62;2.73;1.90;;;18.00;25.20;;;;;;2248808;61;20401;-60
2022/02/05 05:56:04;0.00;0.00;0.62;0.00;0.00;0.62;3.47;1.80;;;18.00;25.20;;;;;;2249491;61;20400;-60
2022/02/05 05:58:50;0.00;0.00;0.62;0.00;0.00;0.62;3.10;1.83;;;18.00;25.20;;;;;;2248471;61;20365;-59
2022/02/05 06:01:36;0.00;0.00;0.62;0.00;0.00;0.62;3.83;1.73;;;18.00;25.20;;;;;;2249278;61;20586;-60
2022/02/05 06:04:20;0.00;0.00;0.62;0.00;0.00;0.62;4.77;2.10;;;17.90;25.10;;;;;;2249041;61;20460;-60
2022/02/05 06:07:06;0.00;0.00;0.62;0.00;0.00;0.62;3.20;2.00;;;17.90;25.10;;;;;;2248360;61;20619;-60
2022/02/05 06:09:50;0.00;0.00;0.62;0.00;0.00;0.62;4.63;2.17;;;17.90;25.10;;;;;;2249548;61;20364;-59
2022/02/05 06:12:35;0.00;0.00;0.62;0.00;0.00;0.62;4.60;2.27;;;17.90;25.10;;;;;;2248485;61;20400;-60
2022/02/05 06:15:21;0.00;0.00;0.62;0.00;0.00;0.62;4.73;2.80;;;17.90;25.10;;;;;;2248754;61;20389;-59
2022/02/05 06:18:07;0.00;0.00;0.62;0.00;0.00;0.62;4.90;2.00;;;17.80;25.10;;;;;;2249715;61;20435;-60
2022/02/05 06:20:51;0.00;0.00;0.62;0.00;0.00;0.62;4.50;2.10;;;17.80;25.10;;;;;;2249041;61;20437;-60
2022/02/05 06:23:36;0.00;0.00;0.62;0.00;0.00;0.62;4.53;2.77;;;17.80;25.10;;;;;;2249541;61;20465;-61
2022/02/05 06:26:21;0.00;0.00;0.62;0.00;0.00;0.62;3.77;1.83;;;17.80;25.10;;;;;;2249757;61;20387;-59
2022/02/05 06:29:05;0.00;0.00;0.62;0.00;0.00;0.62;2.97;2.50;;;17.80;25.10;;;;;;2249358;61;20363;-60
2022/02/05 06:31:51;0.00;0.00;0.62;0.00;0.00;0.62;3.40;2.00;;;17.80;25.20;;;;;;2249869;61;20365;-60
2022/02/05 06:34:36;0.00;0.00;0.62;0.00;0.00;0.62;7.13;1.90;;;17.80;25.20;;;;;;2249136;61;20693;-61
2022/02/05 06:37:21;0.00;0.00;0.62;0.00;0.00;0.62;4.63;2.50;;;17.80;25.20;;;;;;2248297;61;20437;-59
2022/02/05 06:40:07;0.00;0.00;0.62;0.00;0.00;0.62;3.63;1.80;;;17.80;25.30;;;;;;2245852;61;20398;-60
2022/02/05 06:42:52;0.00;0.00;0.62;0.00;0.00;0.62;3.97;2.43;;;17.80;25.30;;;;;;2245136;61;20482;-60
2022/02/05 06:45:37;0.00;0.00;0.62;0.00;0.00;0.62;2.77;2.30;;;17.80;25.30;;;;;;2245397;61;20389;-60
2022/02/05 06:48:23;0.00;0.00;0.62;0.00;0.00;0.62;4.30;2.27;;;17.80;25.20;;;;;;2246921;61;20385;-59
2022/02/05 06:51:07;0.00;0.00;0.62;0.00;0.00;0.62;9.67;2.90;;;17.70;25.10;;;;;;2249267;61;20729;-58
2022/02/05 06:53:52;0.00;0.00;0.62;0.00;0.00;0.62;4.40;2.50;;;17.70;25.00;;;;;;2249833;61;20357;-60
2022/02/05 06:56:36;0.00;0.00;0.62;0.00;0.00;0.62;3.97;2.20;;;17.70;25.00;;;;;;2249392;61;20449;-58
2022/02/05 06:59:21;0.00;0.00;0.62;0.00;0.00;0.62;5.10;2.10;;;17.70;25.00;;;;;;2249313;61;20361;-61
2022/02/05 07:02:05;0.00;0.00;0.62;0.00;0.00;0.62;6.80;2.30;;;17.70;25.00;;;;;;2249955;61;20372;-60
2022/02/05 07:04:51;0.00;0.00;0.62;0.00;0.00;0.62;6.43;2.30;;;17.70;25.00;;;;;;2248989;61;20384;-60
2022/02/05 07:07:36;0.00;0.00;0.62;0.00;0.00;0.62;4.23;2.10;;;17.70;25.10;;;;;;2249117;61;20618;-60
2022/02/05 07:10:21;0.00;0.00;0.62;0.00;0.00;0.62;7.43;2.60;;;17.60;25.00;;;;;;2250029;61;20583;-60
2022/02/05 07:13:15;0.00;0.00;0.62;0.00;0.00;0.62;4.10;2.37;;;17.60;25.10;;;;;;2248872;61;20430;-59
2022/02/05 07:21:48;0.00;0.00;0.62;0.00;0.00;0.62;5.93;2.37;;;17.60;25.20;;;;;;2249152;61;20364;-60
2022/02/05 07:30:26;0.00;0.00;0.62;0.00;0.00;0.62;3.70;2.53;;;17.60;25.20;;;;;;2249429;61;20673;-59
2022/02/05 07:33:11;0.00;0.00;0.62;0.00;0.00;0.62;4.60;2.60;;;17.50;25.10;;;;;;2249484;61;20357;-59
2022/02/05 07:35:55;0.00;0.00;0.62;0.00;0.00;0.62;5.40;2.77;;;17.50;25.10;;;;;;2248875;61;20388;-60
2022/02/05 07:38:42;0.00;0.00;0.62;0.00;0.00;0.62;5.30;2.47;;;17.50;25.10;;;;;;2246423;61;20373;-60
2022/02/05 07:41:26;0.00;0.00;0.62;0.00;0.00;0.62;5.93;2.60;;;17.50;25.20;;;;;;2244959;61;20666;-60
2022/02/05 07:44:13;0.00;0.00;0.62;0.00;0.00;0.62;7.67;3.07;;;17.50;25.20;;;;;;2245178;61;20433;-60
2022/02/05 07:47:00;0.00;0.00;0.62;0.00;0.00;0.62;4.70;2.23;;;17.50;25.20;;;;;;2245923;61;20389;-60
2022/02/05 07:49:45;0.00;0.00;0.62;0.00;0.00;0.62;5.17;2.87;;;17.50;25.20;;;;;;2248424;61;20413;-60
2022/02/05 07:52:30;0.00;0.00;0.62;0.00;0.00;0.62;4.00;2.70;;;17.50;25.20;;;;;;2249313;61;20702;-60
2022/02/05 07:55:16;0.00;0.00;0.62;0.00;0.00;0.62;5.57;2.40;;;17.50;25.20;;;;;;2251712;61;20582;-60
2022/02/05 07:58:00;0.00;0.00;0.62;0.00;0.00;0.62;4.10;2.10;;;17.40;25.10;;;;;;2248765;61;20599;-60
2022/02/05 08:00:45;0.00;0.00;0.62;0.00;0.00;0.62;4.30;2.10;;;17.40;25.20;;;;;;2249798;61;20356;-60
2022/02/05 08:03:30;0.00;0.00;0.62;0.00;0.00;0.62;3.90;2.20;;;17.40;25.30;;;;;;2248678;61;20421;-59
2022/02/05 08:06:17;0.00;0.00;0.62;0.00;0.00;0.62;7.90;3.30;;;17.40;25.30;;;;;;2249022;61;20436;-61
2022/02/05 08:09:06;0.00;0.00;0.62;0.00;0.00;0.62;3.53;2.00;;;17.40;25.30;;;;;;2249871;61;20385;-60
2022/02/05 08:11:58;0.00;0.00;0.62;0.00;0.00;0.62;5.00;2.80;;;17.40;25.30;;;;;;2248563;61;20361;-60
2022/02/05 08:14:46;0.00;0.00;0.62;0.00;0.00;0.62;8.80;2.90;;;17.40;25.40;;;;;;2249222;61;20432;-60
2022/02/05 08:17:34;0.00;0.00;0.62;0.00;0.00;0.62;5.93;2.70;;;17.40;25.40;;;;;;2249496;61;20784;-60
2022/02/05 08:20:18;0.00;0.00;0.62;0.00;0.00;0.62;4.87;2.47;;;17.40;25.50;;;;;;2250885;61;20389;-61
2022/02/05 08:23:03;0.00;0.00;0.62;0.00;0.00;0.62;4.80;2.43;;;17.40;25.50;;;;;;2249841;61;20799;-58
2022/02/05 08:25:47;0.00;0.00;0.62;0.00;0.00;0.62;3.20;2.27;;;17.40;25.60;;;;;;2248553;61;20463;-60
2022/02/05 08:28:35;0.00;0.00;0.62;0.00;0.00;0.62;6.13;2.50;;;17.40;25.60;;;;;;2248926;61;20360;-59
2022/02/05 08:31:19;0.00;0.00;0.62;0.00;0.00;0.62;8.50;2.57;;;17.40;25.70;;;;;;2249852;61;20368;-58
2022/02/05 08:34:04;0.00;0.00;0.62;0.00;0.00;0.62;4.70;1.90;;;17.40;25.70;;;;;;2248240;61;20357;-58
2022/02/05 08:36:49;0.00;0.00;0.62;0.00;0.00;0.62;4.60;2.00;;;17.40;25.70;;;;;;2248523;61;20420;-58
2022/02/05 08:39:34;0.00;0.00;0.62;0.00;0.00;0.62;4.73;2.10;;;17.40;25.70;;;;;;2245316;61;20361;-59
2022/02/05 08:42:18;0.00;0.00;0.62;0.00;0.00;0.62;5.07;2.20;;;17.40;25.70;;;;;;2244803;61;20405;-60
2022/02/05 08:45:06;0.00;0.00;0.62;0.00;0.00;0.62;4.30;2.03;;;17.40;25.80;;;;;;2245754;61;20385;-60
2022/02/05 08:47:51;0.00;0.00;0.62;0.00;0.00;0.62;5.60;2.97;;;17.40;25.80;;;;;;2245007;61;20376;-59
2022/02/05 08:50:36;0.00;0.00;0.62;0.00;0.00;0.62;6.27;2.67;;;17.40;25.80;;;;;;2245011;61;20358;-58
2022/02/05 08:53:22;0.00;0.00;0.62;0.00;0.00;0.62;6.13;2.20;;;17.40;25.70;;;;;;2245544;61;20401;-58
2022/02/05 08:56:06;0.00;0.00;0.62;0.00;0.00;0.62;4.80;2.13;;;17.40;25.70;;;;;;2246890;61;20414;-58
2022/02/05 08:58:54;0.00;0.00;0.62;0.00;0.00;0.62;3.90;2.80;;;17.40;25.60;;;;;;2245000;61;20680;-58
2022/02/05 09:02:09;0.00;0.00;0.62;0.00;0.00;0.62;3.70;1.90;;;17.40;25.60;;;;;;2245575;61;20592;-61
2022/02/05 09:07:29;0.00;0.00;0.62;0.00;0.00;0.62;7.03;2.30;;;17.40;25.70;;;;;;2245519;61;20425;-60
2022/02/05 09:10:38;0.00;0.00;0.62;0.00;0.00;0.62;4.67;2.87;;;17.40;25.70;;;;;;2244520;61;20370;-60
2022/02/05 09:13:37;0.00;0.00;0.62;0.00;0.00;0.62;4.70;2.60;;;17.40;25.70;;;;;;2244877;61;20584;-59
2022/02/05 09:16:22;0.00;0.00;0.62;0.00;0.00;0.62;6.30;2.07;;;17.40;25.70;;;;;;2245281;61;20421;-59
2022/02/05 09:19:08;0.00;0.00;0.62;0.00;0.00;0.62;6.90;2.37;;;17.40;25.80;;;;;;2244458;61;20807;-58
2022/02/05 09:21:53;0.00;0.00;0.62;0.00;0.00;0.62;8.13;2.33;;;17.40;25.80;;;;;;2245766;61;20409;-59
2022/02/05 09:24:37;0.00;0.00;0.62;0.00;0.00;0.62;5.53;2.27;;;17.40;25.80;;;;;;2244861;61;20776;-59
2022/02/05 09:27:23;0.00;0.00;0.62;0.00;0.00;0.62;8.47;2.83;;;17.40;25.90;;;;;;2244899;61;20386;-58
2022/02/05 09:30:14;0.00;0.00;0.62;0.00;0.00;0.62;5.37;2.33;;;17.40;25.80;;;;;;2245575;61;20362;-61
2022/02/05 09:32:58;0.00;0.00;0.62;0.00;0.00;0.62;4.00;2.00;;;17.40;25.90;;;;;;2244561;61;20681;-60
2022/02/05 09:35:44;0.00;0.00;0.62;0.00;0.00;0.62;3.20;1.87;;;17.40;25.90;;;;;;2244959;61;20412;-58
2022/02/05 09:38:29;0.00;0.00;0.62;0.00;0.00;0.62;3.80;1.60;;;17.50;26.10;;;;;;2248695;61;20471;-59
2022/02/05 09:41:13;0.00;0.00;0.62;0.00;0.00;0.62;3.23;2.20;;;17.50;26.00;;;;;;2248572;61;20360;-60
2022/02/05 09:43:58;0.00;0.00;0.62;0.00;0.00;0.62;4.50;1.83;;;17.60;26.10;;;;;;2249304;61;20429;-60
2022/02/05 09:46:43;0.00;0.00;0.62;0.00;0.00;0.62;2.67;1.57;;;17.70;26.20;;;;;;2248871;61;20376;-59
2022/02/05 09:49:27;0.00;0.00;0.62;0.00;0.00;0.62;3.67;1.47;;;17.70;26.30;;;;;;2245532;61;20425;-60
2022/02/05 09:52:23;0.00;0.00;0.62;0.00;0.00;0.62;1.97;1.20;;;17.80;26.30;;;;;;2245410;61;20358;-60
2022/02/05 09:55:08;0.00;0.00;0.62;0.00;0.00;0.62;2.40;1.33;;;17.90;26.50;;;;;;2245053;61;20585;-58
2022/02/05 09:57:53;0.00;0.00;0.62;0.00;0.00;0.62;4.23;1.70;;;17.90;26.40;;;;;;2245616;61;20362;-60
2022/02/05 10:00:37;0.00;0.00;0.62;0.00;0.00;0.62;4.10;1.50;;;18.00;26.50;;;;;;2246132;61;20366;-60
2022/02/05 10:03:24;0.00;0.00;0.62;0.00;0.00;0.62;2.77;1.83;;;18.10;26.70;;;;;;2247155;61;20482;-60
2022/02/05 10:06:13;0.00;0.00;0.62;0.00;0.00;0.62;2.80;1.37;;;18.10;26.70;;;;;;2245811;61;20389;-60
2022/02/05 10:09:04;0.00;0.00;0.62;0.00;0.00;0.62;2.80;1.37;;;18.20;26.70;;;;;;2245233;61;20633;-60
2022/02/05 10:11:51;0.00;0.00;0.62;0.00;0.00;0.62;4.07;1.57;;;18.30;26.70;;;;;;2245585;61;20425;-60
2022/02/05 10:14:36;0.00;0.00;0.62;0.00;0.00;0.62;2.40;1.20;;;18.40;26.80;;;;;;2245736;61;20401;-59
2022/02/05 10:17:35;0.00;0.00;0.62;0.00;0.00;0.62;1.83;1.00;;;18.40;26.80;;;;;;2244980;61;20384;-57
2022/02/05 10:20:21;0.00;0.00;0.62;0.00;0.00;0.62;3.13;1.60;;;18.50;26.80;;;;;;2245582;61;20357;-61
2022/02/05 10:23:09;0.00;0.00;0.62;0.00;0.00;0.62;3.80;1.90;;;18.60;27.00;;;;;;2245883;61;20401;-59
2022/02/05 10:26:07;;;;;;;;;;;;;;;;;;;;;
2022/02/05 10:28:58;0.00;0.00;0.62;0.00;0.00;0.62;3.40;1.67;;;18.70;27.00;;;;;;2247913;61;20475;-61
2022/02/05 10:35:17;0.00;0.00;0.62;0.00;0.00;0.62;2.93;1.50;;;18.80;26.90;;;;;;2245390;61;20361;-54
2022/02/05 10:44:32;0.00;0.00;0.62;0.00;0.00;0.62;4.70;1.83;;;19.00;27.00;;;;;;2241188;62;20802;-57
2022/02/05 10:47:17;0.00;0.00;0.62;0.00;0.00;0.62;4.27;2.50;;;19.10;27.00;;;;;;2240229;62;20418;-60
2022/02/05 10:50:06;0.00;0.00;0.62;0.00;0.00;0.62;3.70;2.33;;;19.10;27.00;;;;;;2253437;61;20728;-59
2022/02/05 10:52:57;0.00;0.00;0.62;0.00;0.00;0.62;3.97;2.33;;;19.20;27.00;;;;;;2245672;61;20579;-58
2022/02/05 10:59:11;0.00;0.00;0.62;0.00;0.00;0.62;5.30;2.97;;;19.30;26.90;;;;;;2245854;61;20417;-58
2022/02/05 11:07:56;0.00;0.00;0.62;0.00;0.00;0.62;4.93;2.20;;;19.50;26.90;;;;;;2245492;61;20377;-58
2022/02/05 11:16:56;0.00;0.00;0.62;0.00;0.00;0.62;3.67;2.70;;;19.60;26.80;;;;;;2244815;61;20393;-58
2022/02/05 11:19:41;0.00;0.00;0.62;0.00;0.00;0.62;4.30;1.73;;;19.70;27.40;;;;;;2245309;61;20401;-61
2022/02/05 11:22:30;0.00;0.00;0.62;0.00;0.00;0.62;3.27;2.30;;;19.70;26.80;;;;;;2245709;61;20361;-58
2022/02/05 11:25:17;0.00;0.00;0.62;0.00;0.00;0.62;4.07;2.37;;;19.80;26.80;;;;;;2244678;61;20725;-57
2022/02/05 11:28:03;0.00;0.00;0.62;0.00;0.00;0.62;2.70;1.83;;;19.80;26.70;;;;;;2245981;61;20360;-58
2022/02/05 11:30:54;0.00;0.00;0.62;0.00;0.00;0.62;3.60;2.17;;;19.90;26.70;;;;;;2244840;61;20358;-60
2022/02/05 11:33:39;0.00;0.00;0.62;0.00;0.00;0.62;3.60;2.10;;;19.90;26.60;;;;;;2245154;61;20353;-60
2022/02/05 11:36:39;0.00;0.00;0.62;0.00;0.00;0.62;3.60;2.07;;;20.00;26.60;;;;;;2246013;61;20450;-60
2022/02/05 11:39:24;0.00;0.00;0.62;0.00;0.00;0.62;3.60;2.07;;;20.00;26.60;;;;;;2244802;61;20373;-60
2022/02/05 11:42:27;0.00;0.00;0.62;0.00;0.00;0.62;3.23;2.30;;;20.10;26.70;;;;;;2245562;61;20361;-60
2022/02/05 11:45:31;0.00;0.00;0.62;0.00;0.00;0.62;4.00;2.10;;;20.10;26.70;;;;;;2245249;61;20413;-59
2022/02/05 11:49:00;0.00;0.00;0.62;0.00;0.00;0.62;3.53;2.20;;;20.10;26.70;;;;;;2246428;61;20416;-60
2022/02/05 11:51:46;0.00;0.00;0.62;0.00;0.00;0.62;4.53;1.83;;;20.20;26.70;;;;;;2249724;61;20634;-57
2022/02/05 11:54:30;0.00;0.00;0.62;0.00;0.00;0.62;5.10;1.90;;;20.20;26.70;;;;;;2248681;61;20353;-59
2022/02/05 11:57:15;0.00;0.00;0.62;0.00;0.00;0.62;2.50;1.60;;;20.20;26.60;;;;;;2249973;61;20436;-59
2022/02/05 12:00:07;0.00;0.00;0.62;0.00;0.00;0.62;2.47;1.63;;;20.20;26.50;;;;;;2248921;61;20407;-61
2022/02/05 12:05:51;0.00;0.00;0.62;0.00;0.00;0.62;2.67;1.70;;;20.30;26.50;;;;;;2249718;61;20380;-59
2022/02/05 12:08:41;0.00;0.00;0.62;0.00;0.00;0.62;2.60;1.63;;;20.30;26.40;;;;;;2248497;61;20694;-61
2022/02/05 12:11:34;0.00;0.00;0.62;0.00;0.00;0.62;2.27;1.70;;;20.40;26.40;;;;;;2248955;61;20392;-58
2022/02/05 12:14:19;0.00;0.00;0.62;0.00;0.00;0.62;3.20;1.70;;;20.40;26.40;;;;;;2248909;61;20361;-60
2022/02/05 12:17:08;0.00;0.00;0.62;0.00;0.00;0.62;3.23;1.77;;;20.40;26.40;;;;;;2248467;61;20380;-60
2022/02/05 12:20:03;0.00;0.00;0.62;0.00;0.00;0.62;3.10;1.80;;;20.40;26.40;;;;;;2249298;61;20443;-59
2022/02/05 12:23:11;0.00;0.00;0.62;0.00;0.00;0.62;3.53;1.50;;;20.40;26.30;;;;;;2248411;61;20776;-59
2022/02/05 12:26:14;0.00;0.00;0.62;0.00;0.00;0.62;2.57;1.50;;;20.40;26.30;;;;;;2248683;61;20416;-58
2022/02/05 12:29:01;0.00;0.00;0.62;0.00;0.00;0.62;3.77;2.07;;;20.50;26.30;;;;;;2249013;61;20356;-60
2022/02/05 12:31:50;0.00;0.00;0.62;0.00;0.00;0.62;2.77;1.70;;;20.50;26.20;;;;;;2248605;61;20368;-60
2022/02/05 12:34:38;0.00;0.00;0.62;0.00;0.00;0.62;2.47;1.30;;;20.50;26.20;;;;;;2249161;61;20965;-60
2022/02/05 12:37:25;0.00;0.00;0.62;0.00;0.00;0.62;1.80;1.40;;;20.50;26.20;;;;;;2247206;61;20639;-58
2022/02/05 12:40:11;0.00;0.00;0.62;0.00;0.00;0.62;3.10;1.77;;;20.50;26.20;;;;;;2244633;61;20611;-59
2022/02/05 12:42:58;0.00;0.00;0.62;0.00;0.00;0.62;2.57;1.33;;;20.60;26.20;;;;;;2245400;61;20417;-60
2022/02/05 12:45:53;0.00;0.00;0.62;0.00;0.00;0.62;2.87;1.77;;;20.60;26.20;;;;;;2244412;61;20764;-60
2022/02/05 12:48:37;0.00;0.00;0.62;0.00;0.00;0.62;2.70;2.00;;;20.60;26.20;;;;;;2246856;61;20436;-60
2022/02/05 12:51:22;0.00;0.00;0.62;0.00;0.00;0.62;3.10;1.57;;;20.60;26.20;;;;;;2249067;61;20578;-59
2022/02/05 12:54:08;0.00;0.00;0.62;0.00;0.00;0.62;3.07;1.80;;;20.60;26.10;;;;;;2248264;61;20448;-59
2022/02/05 12:56:55;0.00;0.00;0.62;0.00;0.00;0.62;2.70;1.40;;;20.60;26.10;;;;;;2249293;61;20413;-60
2022/02/05 12:59:39;0.00;0.00;0.62;0.00;0.00;0.62;2.77;1.50;;;20.60;26.10;;;;;;2248393;61;20674;-58
2022/02/05 13:02:26;0.00;0.00;0.62;0.00;0.00;0.62;3.23;1.60;;;20.70;26.10;;;;;;2248717;61;20361;-60
2022/02/05 13:05:11;0.00;0.00;0.62;0.00;0.00;0.62;2.67;1.60;;;20.70;26.10;;;;;;2249351;61;20472;-60
2022/02/05 13:07:55;0.00;0.00;0.62;0.00;0.00;0.62;4.40;1.47;;;20.70;26.00;;;;;;2234670;61;1048063;-59
2022/02/05 13:10:44;0.00;0.00;0.62;0.00;0.00;0.62;1.93;1.20;;;20.70;26.00;;;;;;2248922;61;20240;-60
2022/02/05 13:13:33;0.00;0.00;0.62;0.00;0.00;0.62;1.90;1.10;;;20.70;26.00;;;;;;2249318;61;20353;-61
2022/02/05 13:16:18;0.00;0.00;0.62;0.00;0.00;0.62;2.33;1.20;;;20.70;26.00;;;;;;2248491;61;20384;-58
2022/02/05 13:19:24;0.00;0.00;0.62;0.00;0.00;0.62;2.57;1.60;;;20.70;26.00;;;;;;2249566;61;20360;-58
2022/02/05 13:28:13;0.00;0.00;0.62;0.00;0.00;0.62;5.90;1.47;;;20.80;26.10;;;;;;2249984;61;20596;-57
2022/02/05 13:42:37;0.00;0.00;0.62;0.00;0.00;0.62;2.43;1.47;;;20.80;26.20;;;;;;2250472;61;20364;-61
2022/02/05 13:45:32;0.00;0.00;0.62;0.00;0.00;0.62;2.40;1.40;;;20.80;26.20;;;;;;2248969;61;20424;-58
2022/02/05 13:48:25;0.00;0.00;0.62;0.00;0.00;0.62;2.07;1.30;;;20.80;26.20;;;;;;2248868;61;20410;-59
2022/02/05 13:51:10;0.00;0.00;0.62;0.00;0.00;0.62;2.07;1.57;;;20.90;26.30;;;;;;2245663;61;20362;-59
2022/02/05 13:53:57;0.00;0.00;0.62;0.00;0.00;0.62;1.80;1.20;;;20.90;26.30;;;;;;2245365;61;20353;-58
2022/02/05 13:56:41;0.00;0.00;0.62;0.00;0.00;0.62;4.20;2.07;;;20.90;26.20;;;;;;2246244;61;20380;-56